Main page
METAR-TAF:

METAR-TAF

Airports :

Dundee Airport

Dundee, Scotland

latitude: 56-27N, longitude: 003-01W, elevation: 4 m

Current weather observation

The report was made 31 hours and 59 minutes ago, at 15:50 UTC
Wind 20 kt from the West/Southwest
Temperature 16°C
Humidity 88%
Pressure 1008 hPa
Visibility 10 km or more
Broken clouds at a height of 1800 ft

METAR: EGPN 171550Z 24020KT 9999 BKN018 16/14 Q1008

Time: 00:49 (23:49 UTC)

Forecast

The report was made 30 hours and 53 minutes ago, at 16:56 UTC
Forecast valid from 20 at 18 UTC to 20 at 20 UTC
Wind 5 kt from the East
Visibility 10 km or more
Scattered clouds at a height of 2500 ft

TAF: EGPN 201656Z 2018/2020 10005KT 9999 SCT025

Weather observations and forecasts of more than 4000 airports (METAR and TAF reports).

The available stations are represented by yellow and red dots on the map.

Hover mouse over dot to see the name of the station.

Then click to see weather observations and forecasts.

To change the map : click on the green buttons with a black cross to zoom in, on the green button with a dash to zoom out, or on the green arrows for adjacent maps.


METAR-TAF: